ウラジオストク の空港の天気 - METARとTAF

ウラジオストク空港 ( UHWW / VVO ) - ロシア ウラジオストク
飛行場実況気象(Metar)
観測時間08/14 06:30 VLAT (08/13 20:30 UTC)
風向・風速不定 1m/s
視程7000m
天気現象
全天の8割程度の雲 雲底高度 430m
気温18℃
湿度100%
気圧1006hPa
METARUHWW 132030Z VRB01MPS 7000 BKN014 18/18 Q1006 R25L/0///70 NOSIG RMK QFE753
過去の天気等 Google飛行場航空写真 Wunderground天気予報

過去48時間のMETAR

飛行場予報(TAF)
発表時間: 8/14 06:00 VLAT (8/13 20:00 UTC)
予報対象時間: 14日7時 VLAT ~ 15日7時 VLAT
風向・風速東北東 3m/s
視程10km以上
全天の8割程度の雲 雲底高度 610m
14日7時 VLAT ~ 14日9時 VLAT に一時的に
視程300m
天気現象
全天を覆う雲 鉛直視程 60m
14日10時 VLAT ~ 14日12時 VLAT に徐々に
風向・風速北北西 3m/s 瞬間風速 8m/s
全天の4割程度の雲 雲底高度 910m
14日20時 VLAT ~ 14日22時 VLAT に徐々に
風向・風速不定 1m/s
TAF UHWW 132000Z 1321/1421 06003MPS 9999 BKN020
TEMPO 1321/1323 0300 FG VV002
BECMG 1400/1402 34003G08MPS SCT030
BECMG 1410/1412 VRB01MPS